createdAt,value
2022-08-25T00:01:20.424Z,21.40
2022-08-25T00:03:56.677Z,21.30
2022-08-25T00:06:30.410Z,21.30
2022-08-25T00:09:02.870Z,21.30
2022-08-25T00:11:37.886Z,21.20
2022-08-25T00:14:15.008Z,21.20
2022-08-25T00:16:50.929Z,21.10
2022-08-25T00:19:27.614Z,21.10
2022-08-25T00:22:04.389Z,21.10
2022-08-25T00:24:37.909Z,21.00
2022-08-25T00:27:12.246Z,21.00
2022-08-25T00:29:44.364Z,20.90
2022-08-25T00:32:18.303Z,20.90
2022-08-25T00:34:50.597Z,20.80
2022-08-25T00:37:23.138Z,20.80
2022-08-25T00:39:57.102Z,20.80
2022-08-25T00:42:29.549Z,20.80
2022-08-25T00:45:02.401Z,20.70
2022-08-25T00:47:36.829Z,20.70
2022-08-25T00:50:10.415Z,20.60
2022-08-25T00:52:48.029Z,20.60
2022-08-25T00:55:34.323Z,20.50
2022-08-25T00:58:18.170Z,20.50
2022-08-25T01:01:13.691Z,20.40
2022-08-25T01:03:46.206Z,20.40
2022-08-25T01:06:19.259Z,20.30
2022-08-25T01:08:53.203Z,20.30
2022-08-25T01:11:26.793Z,20.20
2022-08-25T01:14:03.178Z,20.20
2022-08-25T01:16:39.476Z,20.20
2022-08-25T01:19:15.222Z,20.20
2022-08-25T01:21:52.639Z,20.20
2022-08-25T01:24:34.204Z,20.10
2022-08-25T01:27:13.129Z,20.10
2022-08-25T01:29:47.419Z,20.10
2022-08-25T01:32:20.004Z,20.00
2022-08-25T01:34:52.192Z,20.00
2022-08-25T01:37:24.249Z,20.00
2022-08-25T01:39:56.325Z,19.90
2022-08-25T01:42:53.612Z,19.90
2022-08-25T01:45:46.462Z,19.80
2022-08-25T01:48:19.511Z,19.80
2022-08-25T01:50:51.551Z,19.80
2022-08-25T01:53:28.154Z,19.80
2022-08-25T01:56:13.943Z,19.80
2022-08-25T01:58:49.989Z,19.80
2022-08-25T02:01:27.166Z,19.70
2022-08-25T02:04:00.662Z,19.70
2022-08-25T02:06:35.624Z,19.60
2022-08-25T02:09:15.924Z,19.60
2022-08-25T02:11:48.485Z,19.60
2022-08-25T02:14:20.983Z,19.50
2022-08-25T02:16:54.888Z,19.50
2022-08-25T02:19:27.393Z,19.50
2022-08-25T02:22:02.434Z,19.40
2022-08-25T02:24:35.142Z,19.40
2022-08-25T02:27:07.967Z,19.30
2022-08-25T02:29:41.715Z,19.30
2022-08-25T02:32:16.411Z,19.30
2022-08-25T02:34:48.439Z,19.20
2022-08-25T02:37:20.699Z,19.20
2022-08-25T02:39:54.145Z,19.10
2022-08-25T02:42:27.267Z,19.10
2022-08-25T02:44:59.339Z,19.00
2022-08-25T02:47:31.952Z,19.00
2022-08-25T02:50:05.534Z,18.90
2022-08-25T02:52:40.053Z,18.90
2022-08-25T02:55:14.266Z,18.90
2022-08-25T02:57:48.206Z,18.80
2022-08-25T03:00:22.154Z,18.80
2022-08-25T03:02:55.376Z,18.70
2022-08-25T03:05:27.645Z,18.70
2022-08-25T03:08:00.079Z,18.60
2022-08-25T03:10:32.570Z,18.50
2022-08-25T03:13:05.903Z,18.60
2022-08-25T03:15:38.480Z,18.50
2022-08-25T03:18:14.079Z,18.40
2022-08-25T03:20:46.773Z,18.40
2022-08-25T03:23:18.846Z,18.40
2022-08-25T03:26:09.529Z,18.40
2022-08-25T03:29:05.415Z,18.30
2022-08-25T03:31:38.985Z,18.20
2022-08-25T03:34:13.941Z,18.20
2022-08-25T03:36:52.072Z,18.20
2022-08-25T03:39:26.449Z,18.10
2022-08-25T03:41:58.521Z,18.10
2022-08-25T03:44:30.623Z,18.10
2022-08-25T03:47:02.627Z,18.10
2022-08-25T03:49:34.777Z,18.20
2022-08-25T03:52:06.914Z,18.10
2022-08-25T03:54:38.899Z,18.10
2022-08-25T03:57:11.888Z,18.00
2022-08-25T03:59:43.939Z,18.00
2022-08-25T04:02:16.180Z,18.00
2022-08-25T04:04:48.696Z,18.00
2022-08-25T04:07:21.117Z,18.00
2022-08-25T04:09:56.121Z,18.00
2022-08-25T04:12:28.359Z,17.90
2022-08-25T04:15:01.280Z,17.90
2022-08-25T04:17:39.716Z,17.80
2022-08-25T04:20:14.248Z,17.80
2022-08-25T04:22:46.835Z,17.80
2022-08-25T04:25:18.944Z,17.70
2022-08-25T04:27:51.164Z,17.70
2022-08-25T04:30:23.546Z,17.70
2022-08-25T04:32:55.630Z,17.70
2022-08-25T04:35:27.600Z,17.70
2022-08-25T04:37:59.637Z,17.70
2022-08-25T04:40:32.247Z,17.70
2022-08-25T04:43:04.504Z,17.70
2022-08-25T04:45:40.243Z,17.70
2022-08-25T04:48:12.243Z,17.70
2022-08-25T04:50:44.335Z,17.80
2022-08-25T04:53:16.507Z,17.70
2022-08-25T04:55:49.204Z,17.70
2022-08-25T04:58:21.329Z,17.70
2022-08-25T05:00:53.535Z,17.70
2022-08-25T05:03:32.644Z,17.80
2022-08-25T05:06:06.173Z,17.80
2022-08-25T05:08:39.625Z,17.80
2022-08-25T05:11:14.882Z,17.90
2022-08-25T05:13:51.816Z,17.90
2022-08-25T05:16:26.454Z,17.90
2022-08-25T05:18:59.414Z,17.90
2022-08-25T05:21:32.266Z,18.00
2022-08-25T05:24:04.594Z,18.00
2022-08-25T05:26:37.483Z,18.00
2022-08-25T05:29:11.695Z,18.00
2022-08-25T05:31:50.124Z,18.10
2022-08-25T05:34:22.432Z,18.10
2022-08-25T05:36:57.383Z,18.10
2022-08-25T05:39:33.983Z,18.20
2022-08-25T05:42:06.141Z,18.20
2022-08-25T05:44:38.265Z,18.30
2022-08-25T05:47:10.206Z,18.30
2022-08-25T05:49:42.349Z,18.30
2022-08-25T05:52:18.150Z,18.40
2022-08-25T05:54:52.470Z,18.40
2022-08-25T05:57:24.748Z,18.40
2022-08-25T05:59:56.796Z,18.50
2022-08-25T06:02:46.831Z,18.50
2022-08-25T06:05:23.023Z,18.60
2022-08-25T06:07:55.842Z,18.70
2022-08-25T06:10:28.188Z,18.90
2022-08-25T06:13:00.975Z,19.20
2022-08-25T06:15:33.953Z,19.50
2022-08-25T06:18:07.287Z,19.90
2022-08-25T06:20:39.334Z,20.50
2022-08-25T06:23:12.937Z,21.10
2022-08-25T06:25:53.495Z,21.60
2022-08-25T06:28:27.252Z,22.20
2022-08-25T06:31:03.473Z,22.80
2022-08-25T06:33:35.895Z,23.50
2022-08-25T06:36:08.912Z,24.30
2022-08-25T06:38:41.004Z,25.10
2022-08-25T06:41:14.005Z,26.00
2022-08-25T06:43:50.772Z,26.60
2022-08-25T06:46:35.808Z,27.40
2022-08-25T06:49:09.724Z,28.10
2022-08-25T06:51:42.713Z,28.90
2022-08-25T06:54:14.963Z,29.70
2022-08-25T06:56:47.437Z,29.90
2022-08-25T06:59:22.385Z,29.90
2022-08-25T07:01:54.960Z,30.20
2022-08-25T07:04:27.270Z,30.50
2022-08-25T07:06:59.460Z,31.00
2022-08-25T07:09:35.240Z,31.50
2022-08-25T07:12:09.673Z,31.90
2022-08-25T07:14:44.250Z,32.20
2022-08-25T07:17:27.218Z,32.60
2022-08-25T07:19:59.945Z,32.50
2022-08-25T07:22:33.147Z,32.90
2022-08-25T07:25:05.736Z,33.20
2022-08-25T07:27:41.275Z,33.50
2022-08-25T07:30:15.241Z,33.50
2022-08-25T07:32:48.409Z,33.70
2022-08-25T07:35:27.412Z,33.80
2022-08-25T07:38:10.230Z,33.20
2022-08-25T07:40:45.302Z,32.70
2022-08-25T07:43:34.457Z,32.50
2022-08-25T07:46:08.520Z,32.40
2022-08-25T07:48:41.983Z,32.40
2022-08-25T07:51:17.536Z,32.70
2022-08-25T07:53:49.655Z,32.80
2022-08-25T07:56:22.030Z,33.10
2022-08-25T07:58:54.076Z,33.20
2022-08-25T08:01:26.804Z,33.30
2022-08-25T08:04:01.616Z,33.10
2022-08-25T08:06:35.840Z,33.20
2022-08-25T08:09:10.000Z,33.20
2022-08-25T08:11:53.849Z,33.00
2022-08-25T08:14:26.388Z,33.10
2022-08-25T08:16:58.422Z,33.00
2022-08-25T08:19:31.008Z,33.00
2022-08-25T08:22:04.613Z,32.90
2022-08-25T08:24:44.935Z,32.50
2022-08-25T08:27:27.131Z,32.50
2022-08-25T08:29:59.303Z,32.10
2022-08-25T08:32:52.978Z,31.80
2022-08-25T08:35:25.208Z,31.50
2022-08-25T08:37:57.216Z,31.50
2022-08-25T08:40:31.154Z,31.30
2022-08-25T08:43:18.524Z,31.30
2022-08-25T08:45:53.753Z,31.20
2022-08-25T08:48:39.953Z,31.00
2022-08-25T08:51:49.771Z,30.90
2022-08-25T08:54:34.346Z,30.90
2022-08-25T08:57:17.692Z,30.80
2022-08-25T09:00:01.550Z,30.50
2022-08-25T09:03:04.733Z,30.20
2022-08-25T09:05:50.184Z,30.10
2022-08-25T09:08:29.238Z,29.80
2022-08-25T09:11:28.645Z,29.50
2022-08-25T09:14:30.327Z,29.50
2022-08-25T09:17:28.629Z,29.40
2022-08-25T09:20:46.669Z,29.30
2022-08-25T09:23:36.262Z,29.30
2022-08-25T09:26:28.423Z,29.30
2022-08-25T09:29:16.540Z,29.40
2022-08-25T09:31:57.922Z,29.50
2022-08-25T09:34:34.295Z,29.70
2022-08-25T09:37:06.870Z,29.80
2022-08-25T09:40:00.353Z,29.80
2022-08-25T09:42:58.725Z,29.80
2022-08-25T09:45:45.385Z,29.80
2022-08-25T09:48:26.370Z,29.80
2022-08-25T09:51:17.397Z,29.70
2022-08-25T09:53:57.035Z,29.70
2022-08-25T09:56:34.292Z,29.50
2022-08-25T09:59:21.520Z,29.60
2022-08-25T10:02:28.569Z,29.60
2022-08-25T10:05:23.489Z,29.70
2022-08-25T10:08:03.276Z,29.70
2022-08-25T10:10:52.990Z,29.80
2022-08-25T10:14:16.728Z,29.80
2022-08-25T10:17:29.592Z,29.70
2022-08-25T10:20:09.564Z,29.70
2022-08-25T10:22:53.929Z,29.80
2022-08-25T10:25:57.953Z,29.80
2022-08-25T10:29:10.226Z,29.90
2022-08-25T10:32:27.201Z,30.00
2022-08-25T10:35:26.424Z,30.00
2022-08-25T10:38:08.187Z,30.00
2022-08-25T10:41:33.224Z,29.90
2022-08-25T10:44:57.223Z,30.00
2022-08-25T10:48:22.288Z,29.90
2022-08-25T10:51:43.199Z,30.00
2022-08-25T10:54:56.816Z,30.10
2022-08-25T10:57:53.049Z,30.10
2022-08-25T11:00:40.514Z,30.30
2022-08-25T11:03:55.726Z,30.40
2022-08-25T11:07:03.274Z,30.40
2022-08-25T11:10:11.663Z,30.40
2022-08-25T11:12:59.871Z,30.20
2022-08-25T11:16:18.545Z,30.30
2022-08-25T11:19:11.506Z,30.50
2022-08-25T11:22:07.296Z,30.80
2022-08-25T11:25:04.963Z,30.90
2022-08-25T11:28:20.820Z,31.00
2022-08-25T11:31:15.646Z,31.20
2022-08-25T11:33:51.750Z,31.30
2022-08-25T11:36:33.094Z,31.20
2022-08-25T11:39:15.388Z,31.00
2022-08-25T11:42:34.251Z,30.90
2022-08-25T11:45:46.800Z,30.90
2022-08-25T11:49:01.654Z,31.10
2022-08-25T11:51:54.348Z,31.30
2022-08-25T11:54:36.652Z,31.30
2022-08-25T11:57:13.618Z,31.40
2022-08-25T11:59:53.673Z,31.60
2022-08-25T12:02:46.431Z,31.90
2022-08-25T12:05:20.116Z,32.10
2022-08-25T12:08:30.125Z,32.40
2022-08-25T12:11:39.770Z,32.70
2022-08-25T12:14:29.216Z,33.00
2022-08-25T12:17:25.699Z,33.10
2022-08-25T12:20:08.740Z,33.20
2022-08-25T12:22:44.299Z,33.20
2022-08-25T12:25:35.444Z,33.00
2022-08-25T12:28:44.980Z,32.90
2022-08-25T12:32:04.501Z,32.80
2022-08-25T12:35:12.271Z,32.90
2022-08-25T12:38:05.286Z,33.10
2022-08-25T12:40:42.940Z,33.00
2022-08-25T12:43:48.181Z,32.90
2022-08-25T12:46:25.801Z,32.90
2022-08-25T12:49:06.605Z,32.70
2022-08-25T12:52:07.460Z,32.60
2022-08-25T12:54:59.536Z,32.50
2022-08-25T12:57:57.876Z,32.30
2022-08-25T13:01:00.927Z,32.50
2022-08-25T13:04:05.575Z,32.70
2022-08-25T13:07:09.951Z,32.60
2022-08-25T13:10:32.229Z,32.50
2022-08-25T13:13:33.606Z,32.80
2022-08-25T13:16:29.717Z,33.10
2022-08-25T13:19:06.977Z,33.30
2022-08-25T13:21:50.336Z,33.30
2022-08-25T13:24:41.523Z,33.10
2022-08-25T13:27:26.946Z,32.80
2022-08-25T13:30:06.518Z,32.60
2022-08-25T13:32:53.176Z,32.20
2022-08-25T13:35:32.182Z,32.00
2022-08-25T13:38:19.304Z,31.90
2022-08-25T13:40:51.678Z,31.90
2022-08-25T13:43:34.903Z,32.10
2022-08-25T13:46:10.704Z,32.30
2022-08-25T13:48:49.604Z,32.40
2022-08-25T13:51:33.742Z,32.40
2022-08-25T13:54:09.279Z,32.30
2022-08-25T13:57:23.527Z,32.20
2022-08-25T14:00:09.364Z,32.00
2022-08-25T14:02:52.262Z,31.80
2022-08-25T14:05:36.404Z,31.70
2022-08-25T14:08:34.537Z,31.60
2022-08-25T14:11:25.926Z,31.50
2022-08-25T14:14:08.488Z,31.30
2022-08-25T14:16:58.867Z,31.20
2022-08-25T14:19:37.404Z,30.90
2022-08-25T14:22:15.886Z,30.80
2022-08-25T14:24:48.027Z,30.80
2022-08-25T14:27:22.569Z,31.00
2022-08-25T14:29:54.802Z,31.40
2022-08-25T14:32:27.266Z,31.70
2022-08-25T14:35:09.757Z,31.90
2022-08-25T14:37:44.434Z,32.10
2022-08-25T14:40:19.977Z,32.00
2022-08-25T14:42:53.398Z,32.00
2022-08-25T14:45:25.510Z,32.00
2022-08-25T14:48:14.435Z,31.80
2022-08-25T14:50:56.633Z,31.80
2022-08-25T14:53:30.546Z,31.70
2022-08-25T14:56:06.027Z,31.60
2022-08-25T14:58:51.123Z,31.40
2022-08-25T15:01:28.903Z,31.30
2022-08-25T15:04:12.702Z,31.20
2022-08-25T15:06:57.376Z,30.90
2022-08-25T15:09:33.706Z,30.80
2022-08-25T15:12:06.037Z,30.60
2022-08-25T15:14:39.807Z,30.70
2022-08-25T15:17:14.031Z,30.80
2022-08-25T15:19:47.358Z,30.80
2022-08-25T15:22:19.983Z,30.70
2022-08-25T15:24:52.113Z,30.50
2022-08-25T15:27:24.867Z,30.40
2022-08-25T15:30:05.476Z,30.50
2022-08-25T15:32:38.373Z,30.60
2022-08-25T15:35:10.662Z,30.80
2022-08-25T15:37:43.689Z,31.00
2022-08-25T15:40:19.672Z,31.30
2022-08-25T15:42:51.843Z,31.30
2022-08-25T15:45:24.320Z,31.30
2022-08-25T15:47:56.803Z,31.20
2022-08-25T15:50:28.993Z,31.00
2022-08-25T15:53:01.335Z,30.80
2022-08-25T15:55:33.495Z,30.60
2022-08-25T15:58:09.095Z,30.40
2022-08-25T16:00:41.439Z,30.30
2022-08-25T16:03:15.329Z,30.10
2022-08-25T16:05:48.118Z,30.00
2022-08-25T16:08:21.268Z,29.90
2022-08-25T16:10:53.716Z,29.80
2022-08-25T16:13:26.392Z,29.70
2022-08-25T16:15:59.825Z,29.60
2022-08-25T16:18:34.734Z,29.60
2022-08-25T16:21:12.562Z,29.50
2022-08-25T16:23:49.438Z,29.60
2022-08-25T16:26:25.961Z,29.70
2022-08-25T16:28:59.015Z,29.90
2022-08-25T16:31:31.718Z,30.00
2022-08-25T16:34:04.108Z,30.10
2022-08-25T16:36:37.123Z,30.20
2022-08-25T16:39:11.437Z,30.30
2022-08-25T16:41:43.816Z,30.40
2022-08-25T16:44:16.841Z,30.40
2022-08-25T16:46:54.303Z,30.50
2022-08-25T16:49:27.406Z,30.50
2022-08-25T16:51:59.823Z,30.50
2022-08-25T16:54:53.321Z,30.60
2022-08-25T16:57:49.459Z,30.60
2022-08-25T17:00:28.201Z,30.50
2022-08-25T17:03:04.923Z,30.50
2022-08-25T17:05:42.716Z,30.40
2022-08-25T17:08:30.837Z,30.40
2022-08-25T17:11:11.949Z,30.40
2022-08-25T17:13:56.402Z,30.30
2022-08-25T17:16:33.116Z,30.10
2022-08-25T17:19:11.912Z,30.00
2022-08-25T17:21:46.460Z,29.90
2022-08-25T17:24:18.741Z,29.80
2022-08-25T17:26:51.337Z,29.70
2022-08-25T17:29:23.750Z,29.50
2022-08-25T17:31:56.132Z,29.40
2022-08-25T17:34:29.879Z,29.30
2022-08-25T17:37:02.419Z,29.30
2022-08-25T17:39:36.420Z,29.20
2022-08-25T17:42:09.421Z,29.10
2022-08-25T17:44:42.158Z,29.00
2022-08-25T17:47:15.213Z,28.90
2022-08-25T17:49:48.393Z,28.80
2022-08-25T17:52:25.418Z,28.70
2022-08-25T17:54:58.866Z,28.60
2022-08-25T17:57:31.079Z,28.50
2022-08-25T18:00:12.676Z,28.40
2022-08-25T18:02:48.472Z,28.40
2022-08-25T18:05:20.911Z,28.30
2022-08-25T18:07:54.064Z,28.20
2022-08-25T18:10:26.561Z,28.10
2022-08-25T18:13:02.089Z,28.00
2022-08-25T18:15:34.973Z,27.90
2022-08-25T18:18:07.675Z,27.70
2022-08-25T18:20:45.546Z,27.60
2022-08-25T18:23:19.700Z,27.50
2022-08-25T18:25:51.897Z,27.40
2022-08-25T18:28:33.373Z,27.30
2022-08-25T18:31:07.940Z,27.20
2022-08-25T18:33:44.594Z,27.10
2022-08-25T18:36:17.132Z,27.00
2022-08-25T18:39:10.075Z,26.90
2022-08-25T18:42:04.859Z,26.70
2022-08-25T18:44:37.740Z,26.70
2022-08-25T18:47:10.296Z,26.60
2022-08-25T18:49:42.499Z,26.50
2022-08-25T18:52:14.962Z,26.40
2022-08-25T18:54:47.310Z,26.30
2022-08-25T18:57:21.617Z,26.20
2022-08-25T18:59:53.835Z,26.10
2022-08-25T19:02:25.972Z,26.00
2022-08-25T19:05:01.790Z,25.90
2022-08-25T19:07:40.215Z,25.80
2022-08-25T19:10:13.100Z,25.70
2022-08-25T19:12:47.393Z,25.70
2022-08-25T19:15:24.788Z,25.60
2022-08-25T19:17:58.879Z,25.50
2022-08-25T19:20:31.162Z,25.40
2022-08-25T19:23:07.687Z,25.30
2022-08-25T19:25:42.120Z,25.20
2022-08-25T19:28:14.274Z,25.10
2022-08-25T19:30:50.681Z,25.00
2022-08-25T19:33:42.597Z,24.90
2022-08-25T19:36:17.436Z,24.80
2022-08-25T19:38:52.973Z,24.70
2022-08-25T19:41:28.206Z,24.70
2022-08-25T19:44:03.110Z,24.60
2022-08-25T19:46:37.685Z,24.50
2022-08-25T19:49:16.039Z,24.50
2022-08-25T19:51:53.051Z,24.40
2022-08-25T19:54:33.834Z,24.30
2022-08-25T19:57:11.269Z,24.30
2022-08-25T19:59:47.227Z,24.30
2022-08-25T20:02:28.310Z,24.20
2022-08-25T20:05:02.058Z,24.20
2022-08-25T20:07:36.180Z,24.10
2022-08-25T20:10:14.004Z,24.00
2022-08-25T20:12:46.962Z,24.00
2022-08-25T20:15:19.210Z,23.90
2022-08-25T20:17:56.612Z,23.80
2022-08-25T20:20:32.370Z,23.70
2022-08-25T20:23:32.996Z,23.70
2022-08-25T20:26:26.922Z,23.60
2022-08-25T20:29:00.203Z,23.50
2022-08-25T20:31:33.457Z,23.50
2022-08-25T20:34:05.854Z,23.50
2022-08-25T20:36:40.004Z,23.50
2022-08-25T20:39:24.655Z,23.50
2022-08-25T20:41:56.786Z,23.40
2022-08-25T20:44:33.818Z,23.40
2022-08-25T20:47:10.447Z,23.30
2022-08-25T20:49:44.500Z,23.20
2022-08-25T20:52:18.497Z,23.20
2022-08-25T20:54:51.748Z,23.20
2022-08-25T20:57:26.113Z,23.20
2022-08-25T20:59:59.451Z,23.10
2022-08-25T21:02:35.565Z,23.10
2022-08-25T21:05:08.772Z,23.10
2022-08-25T21:07:41.546Z,23.10
2022-08-25T21:10:14.709Z,23.00
2022-08-25T21:12:49.153Z,23.00
2022-08-25T21:15:25.627Z,22.90
2022-08-25T21:17:58.336Z,22.90
2022-08-25T21:20:31.746Z,22.90
2022-08-25T21:23:08.038Z,22.90
2022-08-25T21:25:41.772Z,22.90
2022-08-25T21:28:15.021Z,22.90
2022-08-25T21:30:47.581Z,22.80
2022-08-25T21:33:19.705Z,22.80
2022-08-25T21:35:59.142Z,22.70
2022-08-25T21:38:33.198Z,22.70
2022-08-25T21:41:11.649Z,22.70
2022-08-25T21:43:50.737Z,22.60
2022-08-25T21:46:26.730Z,22.50
2022-08-25T21:49:06.139Z,22.50
2022-08-25T21:51:43.318Z,22.40
2022-08-25T21:54:17.355Z,22.40
2022-08-25T21:56:59.366Z,22.40
2022-08-25T21:59:37.015Z,22.30
2022-08-25T22:02:13.788Z,22.30
2022-08-25T22:04:48.589Z,22.30
2022-08-25T22:07:24.780Z,22.20
2022-08-25T22:09:57.515Z,22.20
2022-08-25T22:12:29.642Z,22.10
2022-08-25T22:15:02.097Z,22.10
2022-08-25T22:17:35.899Z,22.10
2022-08-25T22:20:09.585Z,22.00
2022-08-25T22:22:42.722Z,22.00
2022-08-25T22:25:15.613Z,22.00
2022-08-25T22:27:48.115Z,21.90
2022-08-25T22:30:29.441Z,21.90
2022-08-25T22:33:02.039Z,21.90
2022-08-25T22:35:35.990Z,21.90
2022-08-25T22:38:12.914Z,21.80
2022-08-25T22:40:45.398Z,21.80
2022-08-25T22:43:18.757Z,21.80
2022-08-25T22:46:00.876Z,21.80
2022-08-25T22:48:35.751Z,21.70
2022-08-25T22:51:17.871Z,21.70
2022-08-25T22:54:14.316Z,21.70
2022-08-25T22:56:46.512Z,21.60
2022-08-25T22:59:19.169Z,21.60
2022-08-25T23:01:52.660Z,21.60
2022-08-25T23:04:26.890Z,21.50
2022-08-25T23:06:59.217Z,21.50
2022-08-25T23:09:31.819Z,21.40
2022-08-25T23:12:04.885Z,21.40
2022-08-25T23:14:38.800Z,21.40
2022-08-25T23:17:14.410Z,21.40
2022-08-25T23:19:46.682Z,21.40
2022-08-25T23:22:19.429Z,21.40
2022-08-25T23:24:52.581Z,21.30
2022-08-25T23:27:24.744Z,21.30
2022-08-25T23:29:57.012Z,21.30
2022-08-25T23:32:29.047Z,21.30
2022-08-25T23:35:01.473Z,21.30
2022-08-25T23:37:34.665Z,21.20
2022-08-25T23:40:10.400Z,21.20
2022-08-25T23:42:42.904Z,21.20
2022-08-25T23:45:19.630Z,21.20
2022-08-25T23:47:51.679Z,21.20
2022-08-25T23:50:23.952Z,21.20
2022-08-25T23:52:57.012Z,21.10
2022-08-25T23:55:33.453Z,21.10
2022-08-25T23:58:07.139Z,21.10
